sensor_id;sensor_type;location;lat;lon;timestamp;temperature;humidity
8910;DHT22;4490;49.072;8.804;2022-08-18T00:01:03;23.30;70.40
8910;DHT22;4490;49.072;8.804;2022-08-18T00:03:30;23.30;70.50
8910;DHT22;4490;49.072;8.804;2022-08-18T00:05:56;23.30;70.50
8910;DHT22;4490;49.072;8.804;2022-08-18T00:08:21;23.30;70.60
8910;DHT22;4490;49.072;8.804;2022-08-18T00:10:47;23.30;70.50
8910;DHT22;4490;49.072;8.804;2022-08-18T00:13:12;23.30;70.70
8910;DHT22;4490;49.072;8.804;2022-08-18T00:15:38;23.30;70.80
8910;DHT22;4490;49.072;8.804;2022-08-18T00:18:04;23.20;70.90
8910;DHT22;4490;49.072;8.804;2022-08-18T00:20:29;23.20;71.10
8910;DHT22;4490;49.072;8.804;2022-08-18T00:22:55;23.20;71.20
8910;DHT22;4490;49.072;8.804;2022-08-18T00:25:22;23.10;71.30
8910;DHT22;4490;49.072;8.804;2022-08-18T00:27:48;23.10;71.40
8910;DHT22;4490;49.072;8.804;2022-08-18T00:30:17;23.00;71.40
8910;DHT22;4490;49.072;8.804;2022-08-18T00:32:47;23.00;71.60
8910;DHT22;4490;49.072;8.804;2022-08-18T00:35:20;23.00;71.80
8910;DHT22;4490;49.072;8.804;2022-08-18T00:37:47;23.00;71.90
8910;DHT22;4490;49.072;8.804;2022-08-18T00:40:17;22.90;71.90
8910;DHT22;4490;49.072;8.804;2022-08-18T00:42:47;22.90;72.10
8910;DHT22;4490;49.072;8.804;2022-08-18T00:45:20;22.80;72.20
8910;DHT22;4490;49.072;8.804;2022-08-18T00:47:47;22.80;72.50
8910;DHT22;4490;49.072;8.804;2022-08-18T00:50:16;22.80;72.60
8910;DHT22;4490;49.072;8.804;2022-08-18T00:52:46;22.70;72.70
8910;DHT22;4490;49.072;8.804;2022-08-18T00:55:14;22.70;72.90
8910;DHT22;4490;49.072;8.804;2022-08-18T00:57:43;22.70;73.00
8910;DHT22;4490;49.072;8.804;2022-08-18T01:00:09;22.70;73.10
8910;DHT22;4490;49.072;8.804;2022-08-18T01:02:48;22.60;73.10
8910;DHT22;4490;49.072;8.804;2022-08-18T01:05:26;22.60;73.40
8910;DHT22;4490;49.072;8.804;2022-08-18T01:07:54;22.60;73.40
8910;DHT22;4490;49.072;8.804;2022-08-18T01:10:22;22.60;73.40
8910;DHT22;4490;49.072;8.804;2022-08-18T01:12:53;22.60;73.50
8910;DHT22;4490;49.072;8.804;2022-08-18T01:15:20;22.60;73.40
8910;DHT22;4490;49.072;8.804;2022-08-18T01:17:46;22.70;73.50
8910;DHT22;4490;49.072;8.804;2022-08-18T01:23:39;22.70;73.50
8910;DHT22;4490;49.072;8.804;2022-08-18T01:26:05;22.60;73.40
8910;DHT22;4490;49.072;8.804;2022-08-18T01:28:38;22.50;73.60
8910;DHT22;4490;49.072;8.804;2022-08-18T01:31:06;22.50;74.00
8910;DHT22;4490;49.072;8.804;2022-08-18T01:33:40;22.40;74.00
8910;DHT22;4490;49.072;8.804;2022-08-18T01:36:15;22.40;74.20
8910;DHT22;4490;49.072;8.804;2022-08-18T01:38:47;22.40;74.30
8910;DHT22;4490;49.072;8.804;2022-08-18T01:41:15;22.30;74.20
8910;DHT22;4490;49.072;8.804;2022-08-18T01:43:41;22.40;74.40
8910;DHT22;4490;49.072;8.804;2022-08-18T01:46:06;22.40;74.40
8910;DHT22;4490;49.072;8.804;2022-08-18T01:48:34;22.30;74.50
8910;DHT22;4490;49.072;8.804;2022-08-18T01:51:05;22.20;74.60
8910;DHT22;4490;49.072;8.804;2022-08-18T01:53:31;22.20;74.60
8910;DHT22;4490;49.072;8.804;2022-08-18T01:55:57;22.20;74.70
8910;DHT22;4490;49.072;8.804;2022-08-18T01:58:22;22.20;74.70
8910;DHT22;4490;49.072;8.804;2022-08-18T02:00:56;22.20;74.70
8910;DHT22;4490;49.072;8.804;2022-08-18T02:03:24;22.20;74.70
8910;DHT22;4490;49.072;8.804;2022-08-18T02:05:54;22.20;74.80
8910;DHT22;4490;49.072;8.804;2022-08-18T02:08:20;22.20;75.00
8910;DHT22;4490;49.072;8.804;2022-08-18T02:10:46;22.10;75.00
8910;DHT22;4490;49.072;8.804;2022-08-18T02:13:12;22.10;75.10
8910;DHT22;4490;49.072;8.804;2022-08-18T02:15:38;22.10;75.20
8910;DHT22;4490;49.072;8.804;2022-08-18T02:18:03;22.10;75.60
8910;DHT22;4490;49.072;8.804;2022-08-18T02:20:29;22.10;75.50
8910;DHT22;4490;49.072;8.804;2022-08-18T02:22:55;22.00;75.60
8910;DHT22;4490;49.072;8.804;2022-08-18T02:25:23;22.00;75.70
8910;DHT22;4490;49.072;8.804;2022-08-18T02:27:49;22.00;75.70
8910;DHT22;4490;49.072;8.804;2022-08-18T02:30:17;21.90;75.90
8910;DHT22;4490;49.072;8.804;2022-08-18T02:32:43;21.90;75.90
8910;DHT22;4490;49.072;8.804;2022-08-18T02:35:10;21.80;76.10
8910;DHT22;4490;49.072;8.804;2022-08-18T02:37:37;21.80;76.10
8910;DHT22;4490;49.072;8.804;2022-08-18T02:40:04;21.80;76.40
8910;DHT22;4490;49.072;8.804;2022-08-18T02:42:30;21.80;76.50
8910;DHT22;4490;49.072;8.804;2022-08-18T02:44:56;21.70;76.40
8910;DHT22;4490;49.072;8.804;2022-08-18T02:47:21;21.60;76.30
8910;DHT22;4490;49.072;8.804;2022-08-18T02:49:47;21.60;76.20
8910;DHT22;4490;49.072;8.804;2022-08-18T02:52:13;21.60;76.20
8910;DHT22;4490;49.072;8.804;2022-08-18T02:54:39;21.60;76.20
8910;DHT22;4490;49.072;8.804;2022-08-18T02:57:10;21.60;76.20
8910;DHT22;4490;49.072;8.804;2022-08-18T02:59:36;21.60;76.20
8910;DHT22;4490;49.072;8.804;2022-08-18T03:02:05;21.50;76.00
8910;DHT22;4490;49.072;8.804;2022-08-18T03:04:31;21.50;76.70
8910;DHT22;4490;49.072;8.804;2022-08-18T03:06:59;21.50;76.10
8910;DHT22;4490;49.072;8.804;2022-08-18T03:09:26;21.50;76.20
8910;DHT22;4490;49.072;8.804;2022-08-18T03:11:52;21.50;76.20
8910;DHT22;4490;49.072;8.804;2022-08-18T03:14:18;21.40;76.10
8910;DHT22;4490;49.072;8.804;2022-08-18T03:16:45;21.40;77.00
8910;DHT22;4490;49.072;8.804;2022-08-18T03:19:12;21.40;76.40
8910;DHT22;4490;49.072;8.804;2022-08-18T03:21:44;21.30;76.40
8910;DHT22;4490;49.072;8.804;2022-08-18T03:24:11;21.30;76.50
8910;DHT22;4490;49.072;8.804;2022-08-18T03:26:41;21.30;76.50
8910;DHT22;4490;49.072;8.804;2022-08-18T03:29:07;21.30;76.60
8910;DHT22;4490;49.072;8.804;2022-08-18T03:31:34;21.20;76.60
8910;DHT22;4490;49.072;8.804;2022-08-18T03:34:03;21.20;76.80
8910;DHT22;4490;49.072;8.804;2022-08-18T03:36:31;21.20;76.80
8910;DHT22;4490;49.072;8.804;2022-08-18T03:39:01;21.20;76.90
8910;DHT22;4490;49.072;8.804;2022-08-18T03:41:27;21.20;77.60
8910;DHT22;4490;49.072;8.804;2022-08-18T03:43:53;21.30;77.00
8910;DHT22;4490;49.072;8.804;2022-08-18T03:46:20;21.30;77.20
8910;DHT22;4490;49.072;8.804;2022-08-18T03:48:48;21.30;77.20
8910;DHT22;4490;49.072;8.804;2022-08-18T03:51:19;21.20;77.20
8910;DHT22;4490;49.072;8.804;2022-08-18T03:53:47;21.20;77.30
8910;DHT22;4490;49.072;8.804;2022-08-18T03:56:15;21.20;77.30
8910;DHT22;4490;49.072;8.804;2022-08-18T03:58:53;21.20;77.30
8910;DHT22;4490;49.072;8.804;2022-08-18T04:01:21;21.30;77.20
8910;DHT22;4490;49.072;8.804;2022-08-18T04:03:51;21.30;77.10
8910;DHT22;4490;49.072;8.804;2022-08-18T04:06:20;21.30;77.10
8910;DHT22;4490;49.072;8.804;2022-08-18T04:08:49;21.30;77.30
8910;DHT22;4490;49.072;8.804;2022-08-18T04:11:15;21.20;77.40
8910;DHT22;4490;49.072;8.804;2022-08-18T04:13:41;21.20;77.50
8910;DHT22;4490;49.072;8.804;2022-08-18T04:16:07;21.20;77.60
8910;DHT22;4490;49.072;8.804;2022-08-18T04:18:32;21.10;77.50
8910;DHT22;4490;49.072;8.804;2022-08-18T04:21:06;21.10;77.50
8910;DHT22;4490;49.072;8.804;2022-08-18T04:23:37;21.10;77.60
8910;DHT22;4490;49.072;8.804;2022-08-18T04:26:04;21.10;77.60
8910;DHT22;4490;49.072;8.804;2022-08-18T04:28:33;21.20;77.40
8910;DHT22;4490;49.072;8.804;2022-08-18T04:31:05;21.20;77.30
8910;DHT22;4490;49.072;8.804;2022-08-18T04:33:31;21.20;77.50
8910;DHT22;4490;49.072;8.804;2022-08-18T04:35:57;21.10;77.60
8910;DHT22;4490;49.072;8.804;2022-08-18T04:38:22;21.10;77.60
8910;DHT22;4490;49.072;8.804;2022-08-18T04:40:48;21.20;78.50
8910;DHT22;4490;49.072;8.804;2022-08-18T04:43:14;21.20;77.80
8910;DHT22;4490;49.072;8.804;2022-08-18T04:45:41;21.20;77.90
8910;DHT22;4490;49.072;8.804;2022-08-18T04:48:09;21.20;78.80
8910;DHT22;4490;49.072;8.804;2022-08-18T04:50:36;21.20;78.10
8910;DHT22;4490;49.072;8.804;2022-08-18T04:53:02;21.20;78.20
8910;DHT22;4490;49.072;8.804;2022-08-18T04:55:50;21.20;78.30
8910;DHT22;4490;49.072;8.804;2022-08-18T04:58:17;21.20;78.40
8910;DHT22;4490;49.072;8.804;2022-08-18T05:00:44;21.20;78.30
8910;DHT22;4490;49.072;8.804;2022-08-18T05:03:10;21.20;78.30
8910;DHT22;4490;49.072;8.804;2022-08-18T05:05:36;21.20;78.20
8910;DHT22;4490;49.072;8.804;2022-08-18T05:08:02;21.20;78.20
8910;DHT22;4490;49.072;8.804;2022-08-18T05:10:28;21.20;78.30
8910;DHT22;4490;49.072;8.804;2022-08-18T05:12:54;21.20;78.20
8910;DHT22;4490;49.072;8.804;2022-08-18T05:15:20;21.30;78.30
8910;DHT22;4490;49.072;8.804;2022-08-18T05:17:45;21.30;78.30
8910;DHT22;4490;49.072;8.804;2022-08-18T05:20:11;21.30;78.40
8910;DHT22;4490;49.072;8.804;2022-08-18T05:22:41;21.30;79.20
8910;DHT22;4490;49.072;8.804;2022-08-18T05:25:09;21.40;78.70
8910;DHT22;4490;49.072;8.804;2022-08-18T05:27:38;21.30;78.70
8910;DHT22;4490;49.072;8.804;2022-08-18T05:30:05;21.30;78.80
8910;DHT22;4490;49.072;8.804;2022-08-18T05:32:40;21.30;78.80
8910;DHT22;4490;49.072;8.804;2022-08-18T05:35:12;21.40;79.00
8910;DHT22;4490;49.072;8.804;2022-08-18T05:40:05;21.40;79.00
8910;DHT22;4490;49.072;8.804;2022-08-18T05:42:36;21.40;79.10
8910;DHT22;4490;49.072;8.804;2022-08-18T05:45:08;21.40;79.40
8910;DHT22;4490;49.072;8.804;2022-08-18T05:47:35;21.40;79.50
8910;DHT22;4490;49.072;8.804;2022-08-18T05:50:27;21.40;79.50
8910;DHT22;4490;49.072;8.804;2022-08-18T05:53:06;21.40;79.60
8910;DHT22;4490;49.072;8.804;2022-08-18T05:55:36;21.40;79.70
8910;DHT22;4490;49.072;8.804;2022-08-18T05:58:41;21.40;79.90
8910;DHT22;4490;49.072;8.804;2022-08-18T06:01:28;21.40;80.20
8910;DHT22;4490;49.072;8.804;2022-08-18T06:04:10;21.40;80.30
8910;DHT22;4490;49.072;8.804;2022-08-18T06:06:39;21.40;80.40
8910;DHT22;4490;49.072;8.804;2022-08-18T06:11:37;21.40;80.50
8910;DHT22;4490;49.072;8.804;2022-08-18T06:14:03;21.50;80.70
8910;DHT22;4490;49.072;8.804;2022-08-18T06:16:58;21.50;80.80
8910;DHT22;4490;49.072;8.804;2022-08-18T06:20:00;21.50;81.00
8910;DHT22;4490;49.072;8.804;2022-08-18T06:25:47;21.60;81.00
8910;DHT22;4490;49.072;8.804;2022-08-18T06:28:18;21.60;81.00
8910;DHT22;4490;49.072;8.804;2022-08-18T06:36:33;21.70;81.00
8910;DHT22;4490;49.072;8.804;2022-08-18T06:39:33;21.70;81.00
8910;DHT22;4490;49.072;8.804;2022-08-18T06:41:59;21.80;80.80
8910;DHT22;4490;49.072;8.804;2022-08-18T06:44:38;21.80;80.80
8910;DHT22;4490;49.072;8.804;2022-08-18T06:52:31;21.80;80.50
8910;DHT22;4490;49.072;8.804;2022-08-18T06:55:02;21.90;80.70
8910;DHT22;4490;49.072;8.804;2022-08-18T06:57:40;21.90;80.70
8910;DHT22;4490;49.072;8.804;2022-08-18T07:02:59;22.00;80.60
8910;DHT22;4490;49.072;8.804;2022-08-18T07:05:27;22.00;80.50
8910;DHT22;4490;49.072;8.804;2022-08-18T07:08:14;22.00;80.50
8910;DHT22;4490;49.072;8.804;2022-08-18T07:10:47;22.10;80.40
8910;DHT22;4490;49.072;8.804;2022-08-18T07:13:24;22.10;80.30
8910;DHT22;4490;49.072;8.804;2022-08-18T07:15:54;22.20;80.40
8910;DHT22;4490;49.072;8.804;2022-08-18T07:18:23;22.20;80.40
8910;DHT22;4490;49.072;8.804;2022-08-18T07:21:00;22.20;80.10
8910;DHT22;4490;49.072;8.804;2022-08-18T07:23:34;22.30;80.30
8910;DHT22;4490;49.072;8.804;2022-08-18T07:26:07;22.40;80.30
8910;DHT22;4490;49.072;8.804;2022-08-18T07:28:46;22.50;80.20
8910;DHT22;4490;49.072;8.804;2022-08-18T07:33:40;22.60;80.00
8910;DHT22;4490;49.072;8.804;2022-08-18T07:36:08;22.60;79.90
8910;DHT22;4490;49.072;8.804;2022-08-18T07:38:48;22.70;79.90
8910;DHT22;4490;49.072;8.804;2022-08-18T07:41:41;22.70;79.90
8910;DHT22;4490;49.072;8.804;2022-08-18T07:49:21;22.80;80.90
8910;DHT22;4490;49.072;8.804;2022-08-18T07:51:55;22.90;80.20
8910;DHT22;4490;49.072;8.804;2022-08-18T08:00:31;22.90;80.20
8910;DHT22;4490;49.072;8.804;2022-08-18T08:06:06;22.90;80.20
8910;DHT22;4490;49.072;8.804;2022-08-18T08:08:44;22.90;80.30
8910;DHT22;4490;49.072;8.804;2022-08-18T08:14:18;22.80;80.50
8910;DHT22;4490;49.072;8.804;2022-08-18T08:22:19;22.70;80.80
8910;DHT22;4490;49.072;8.804;2022-08-18T08:28:07;22.60;81.20
8910;DHT22;4490;49.072;8.804;2022-08-18T08:30:43;22.60;81.40
8910;DHT22;4490;49.072;8.804;2022-08-18T08:33:35;22.50;81.60
8910;DHT22;4490;49.072;8.804;2022-08-18T08:36:08;22.50;82.00
8910;DHT22;4490;49.072;8.804;2022-08-18T08:38:46;22.40;82.10
8910;DHT22;4490;49.072;8.804;2022-08-18T08:41:23;22.30;82.10
8910;DHT22;4490;49.072;8.804;2022-08-18T08:47:06;22.30;82.50
8910;DHT22;4490;49.072;8.804;2022-08-18T08:49:55;22.30;82.70
8910;DHT22;4490;49.072;8.804;2022-08-18T08:52:51;22.30;83.10
8910;DHT22;4490;49.072;8.804;2022-08-18T08:55:24;22.40;83.70
8910;DHT22;4490;49.072;8.804;2022-08-18T08:58:02;22.40;83.20
8910;DHT22;4490;49.072;8.804;2022-08-18T09:00:33;22.50;83.30
8910;DHT22;4490;49.072;8.804;2022-08-18T09:08:57;22.80;83.40
8910;DHT22;4490;49.072;8.804;2022-08-18T09:23:20;22.80;82.30
8910;DHT22;4490;49.072;8.804;2022-08-18T09:25:50;22.90;83.50
8910;DHT22;4490;49.072;8.804;2022-08-18T09:36:12;23.60;81.50
8910;DHT22;4490;49.072;8.804;2022-08-18T09:42:15;24.00;80.80
8910;DHT22;4490;49.072;8.804;2022-08-18T09:49:53;24.40;79.20
8910;DHT22;4490;49.072;8.804;2022-08-18T09:57:28;24.60;78.20
8910;DHT22;4490;49.072;8.804;2022-08-18T10:00:17;24.60;78.00
8910;DHT22;4490;49.072;8.804;2022-08-18T10:10:24;24.80;77.90
8910;DHT22;4490;49.072;8.804;2022-08-18T10:18:39;25.00;77.60
8910;DHT22;4490;49.072;8.804;2022-08-18T10:21:18;25.00;77.60
8910;DHT22;4490;49.072;8.804;2022-08-18T10:24:13;24.90;77.60
8910;DHT22;4490;49.072;8.804;2022-08-18T10:29:10;24.90;77.60
8910;DHT22;4490;49.072;8.804;2022-08-18T10:34:51;24.90;77.60
8910;DHT22;4490;49.072;8.804;2022-08-18T10:37:35;24.90;77.80
8910;DHT22;4490;49.072;8.804;2022-08-18T10:42:44;25.00;77.90
8910;DHT22;4490;49.072;8.804;2022-08-18T10:45:33;25.00;77.70
8910;DHT22;4490;49.072;8.804;2022-08-18T10:48:20;25.10;77.10
8910;DHT22;4490;49.072;8.804;2022-08-18T11:06:46;25.60;76.10
8910;DHT22;4490;49.072;8.804;2022-08-18T11:09:24;25.60;76.00
8910;DHT22;4490;49.072;8.804;2022-08-18T11:11:54;25.60;75.80
8910;DHT22;4490;49.072;8.804;2022-08-18T11:14:38;25.60;75.70
8910;DHT22;4490;49.072;8.804;2022-08-18T11:20:06;25.70;75.90
8910;DHT22;4490;49.072;8.804;2022-08-18T11:22:35;25.70;75.80
8910;DHT22;4490;49.072;8.804;2022-08-18T11:25:03;25.70;75.70
8910;DHT22;4490;49.072;8.804;2022-08-18T11:27:45;25.70;75.80
8910;DHT22;4490;49.072;8.804;2022-08-18T11:30:11;25.70;76.00
8910;DHT22;4490;49.072;8.804;2022-08-18T11:32:39;25.80;75.90
8910;DHT22;4490;49.072;8.804;2022-08-18T11:37:48;25.90;75.60
8910;DHT22;4490;49.072;8.804;2022-08-18T11:43:33;26.20;75.10
8910;DHT22;4490;49.072;8.804;2022-08-18T11:48:42;26.30;74.30
8910;DHT22;4490;49.072;8.804;2022-08-18T11:51:20;26.40;73.70
8910;DHT22;4490;49.072;8.804;2022-08-18T11:53:56;26.40;73.90
8910;DHT22;4490;49.072;8.804;2022-08-18T11:56:26;26.50;73.80
8910;DHT22;4490;49.072;8.804;2022-08-18T11:58:59;26.60;74.30
8910;DHT22;4490;49.072;8.804;2022-08-18T12:06:58;27.10;73.10
8910;DHT22;4490;49.072;8.804;2022-08-18T12:11:59;27.60;72.50
8910;DHT22;4490;49.072;8.804;2022-08-18T12:14:28;28.00;71.30
8910;DHT22;4490;49.072;8.804;2022-08-18T12:16:54;28.40;70.10
8910;DHT22;4490;49.072;8.804;2022-08-18T12:19:21;28.70;69.00
8910;DHT22;4490;49.072;8.804;2022-08-18T12:21:56;28.90;68.20
8910;DHT22;4490;49.072;8.804;2022-08-18T12:24:30;29.10;67.30
8910;DHT22;4490;49.072;8.804;2022-08-18T12:26:57;29.40;66.70
8910;DHT22;4490;49.072;8.804;2022-08-18T12:29:23;29.70;65.70
8910;DHT22;4490;49.072;8.804;2022-08-18T12:32:15;29.80;63.30
8910;DHT22;4490;49.072;8.804;2022-08-18T12:34:44;30.00;61.70
8910;DHT22;4490;49.072;8.804;2022-08-18T12:37:17;30.00;61.50
8910;DHT22;4490;49.072;8.804;2022-08-18T12:39:44;30.00;60.80
8910;DHT22;4490;49.072;8.804;2022-08-18T12:42:10;30.00;61.00
8910;DHT22;4490;49.072;8.804;2022-08-18T12:44:36;30.00;60.00
8910;DHT22;4490;49.072;8.804;2022-08-18T12:47:06;30.10;59.80
8910;DHT22;4490;49.072;8.804;2022-08-18T12:49:35;30.30;59.30
8910;DHT22;4490;49.072;8.804;2022-08-18T12:52:00;30.40;58.80
8910;DHT22;4490;49.072;8.804;2022-08-18T12:54:26;30.40;58.50
8910;DHT22;4490;49.072;8.804;2022-08-18T12:56:54;30.40;58.30
8910;DHT22;4490;49.072;8.804;2022-08-18T12:59:20;30.40;58.10
8910;DHT22;4490;49.072;8.804;2022-08-18T13:01:46;30.40;57.50
8910;DHT22;4490;49.072;8.804;2022-08-18T13:04:11;30.50;57.50
8910;DHT22;4490;49.072;8.804;2022-08-18T13:06:49;30.50;57.50
8910;DHT22;4490;49.072;8.804;2022-08-18T13:09:15;30.60;57.00
8910;DHT22;4490;49.072;8.804;2022-08-18T13:11:41;30.70;57.40
8910;DHT22;4490;49.072;8.804;2022-08-18T13:14:07;30.80;57.20
8910;DHT22;4490;49.072;8.804;2022-08-18T13:16:35;30.90;56.80
8910;DHT22;4490;49.072;8.804;2022-08-18T13:19:02;31.10;56.00
8910;DHT22;4490;49.072;8.804;2022-08-18T13:21:28;31.30;55.60
8910;DHT22;4490;49.072;8.804;2022-08-18T13:23:54;31.50;55.40
8910;DHT22;4490;49.072;8.804;2022-08-18T13:26:32;31.70;54.70
8910;DHT22;4490;49.072;8.804;2022-08-18T13:28:58;31.80;54.00
8910;DHT22;4490;49.072;8.804;2022-08-18T13:31:27;31.70;54.00
8910;DHT22;4490;49.072;8.804;2022-08-18T13:33:54;31.50;54.20
8910;DHT22;4490;49.072;8.804;2022-08-18T13:36:21;31.40;54.70
8910;DHT22;4490;49.072;8.804;2022-08-18T13:38:47;31.40;54.70
8910;DHT22;4490;49.072;8.804;2022-08-18T13:41:14;31.30;55.00
8910;DHT22;4490;49.072;8.804;2022-08-18T13:43:42;31.30;54.70
8910;DHT22;4490;49.072;8.804;2022-08-18T13:46:10;31.40;54.50
8910;DHT22;4490;49.072;8.804;2022-08-18T13:48:37;31.60;54.10
8910;DHT22;4490;49.072;8.804;2022-08-18T13:51:04;31.60;54.00
8910;DHT22;4490;49.072;8.804;2022-08-18T13:53:30;31.60;53.80
8910;DHT22;4490;49.072;8.804;2022-08-18T13:55:56;31.50;53.80
8910;DHT22;4490;49.072;8.804;2022-08-18T13:58:26;31.30;53.90
8910;DHT22;4490;49.072;8.804;2022-08-18T14:00:56;30.90;54.10
8910;DHT22;4490;49.072;8.804;2022-08-18T14:03:22;30.80;54.40
8910;DHT22;4490;49.072;8.804;2022-08-18T14:05:51;30.70;54.80
8910;DHT22;4490;49.072;8.804;2022-08-18T14:08:23;30.60;54.90
8910;DHT22;4490;49.072;8.804;2022-08-18T14:10:52;30.60;54.60
8910;DHT22;4490;49.072;8.804;2022-08-18T14:13:18;30.60;55.20
8910;DHT22;4490;49.072;8.804;2022-08-18T14:15:45;30.50;54.50
8910;DHT22;4490;49.072;8.804;2022-08-18T14:18:12;30.50;54.90
8910;DHT22;4490;49.072;8.804;2022-08-18T14:20:38;30.50;54.70
8910;DHT22;4490;49.072;8.804;2022-08-18T14:23:22;30.60;54.50
8910;DHT22;4490;49.072;8.804;2022-08-18T14:26:06;30.60;54.50
8910;DHT22;4490;49.072;8.804;2022-08-18T14:28:50;30.70;54.60
8910;DHT22;4490;49.072;8.804;2022-08-18T14:31:16;30.70;54.50
8910;DHT22;4490;49.072;8.804;2022-08-18T14:33:43;30.80;54.30
8910;DHT22;4490;49.072;8.804;2022-08-18T14:36:10;30.70;54.00
8910;DHT22;4490;49.072;8.804;2022-08-18T14:38:37;30.70;54.10
8910;DHT22;4490;49.072;8.804;2022-08-18T14:41:05;30.60;54.10
8910;DHT22;4490;49.072;8.804;2022-08-18T14:43:32;30.50;54.30
8910;DHT22;4490;49.072;8.804;2022-08-18T14:46:01;30.50;54.50
8910;DHT22;4490;49.072;8.804;2022-08-18T14:48:27;30.50;54.30
8910;DHT22;4490;49.072;8.804;2022-08-18T14:50:55;30.50;54.70
8910;DHT22;4490;49.072;8.804;2022-08-18T14:53:24;30.60;54.70
8910;DHT22;4490;49.072;8.804;2022-08-18T14:55:51;30.60;54.80
8910;DHT22;4490;49.072;8.804;2022-08-18T14:58:23;30.70;55.00
8910;DHT22;4490;49.072;8.804;2022-08-18T15:00:57;30.80;54.70
8910;DHT22;4490;49.072;8.804;2022-08-18T15:03:25;30.90;54.70
8910;DHT22;4490;49.072;8.804;2022-08-18T15:05:51;30.90;54.50
8910;DHT22;4490;49.072;8.804;2022-08-18T15:08:16;31.00;54.30
8910;DHT22;4490;49.072;8.804;2022-08-18T15:10:44;31.00;54.20
8910;DHT22;4490;49.072;8.804;2022-08-18T15:13:09;31.00;54.30
8910;DHT22;4490;49.072;8.804;2022-08-18T15:15:35;31.00;54.10
8910;DHT22;4490;49.072;8.804;2022-08-18T15:18:01;31.00;54.00
8910;DHT22;4490;49.072;8.804;2022-08-18T15:20:27;30.90;53.90
8910;DHT22;4490;49.072;8.804;2022-08-18T15:22:53;30.80;54.20
8910;DHT22;4490;49.072;8.804;2022-08-18T15:25:37;30.80;54.40
8910;DHT22;4490;49.072;8.804;2022-08-18T15:28:23;30.70;54.40
8910;DHT22;4490;49.072;8.804;2022-08-18T15:30:51;30.70;54.70
8910;DHT22;4490;49.072;8.804;2022-08-18T15:33:18;30.60;54.60
8910;DHT22;4490;49.072;8.804;2022-08-18T15:35:45;30.50;54.60
8910;DHT22;4490;49.072;8.804;2022-08-18T15:38:17;30.40;54.60
8910;DHT22;4490;49.072;8.804;2022-08-18T15:40:53;30.40;54.80
8910;DHT22;4490;49.072;8.804;2022-08-18T15:43:19;30.30;54.90
8910;DHT22;4490;49.072;8.804;2022-08-18T15:45:46;30.20;55.10
8910;DHT22;4490;49.072;8.804;2022-08-18T15:48:17;30.10;55.10
8910;DHT22;4490;49.072;8.804;2022-08-18T15:50:44;30.10;55.20
8910;DHT22;4490;49.072;8.804;2022-08-18T15:53:15;30.10;55.20
8910;DHT22;4490;49.072;8.804;2022-08-18T15:55:41;30.00;55.20
8910;DHT22;4490;49.072;8.804;2022-08-18T15:58:09;30.00;55.20
8910;DHT22;4490;49.072;8.804;2022-08-18T16:00:36;30.00;55.30
8910;DHT22;4490;49.072;8.804;2022-08-18T16:03:05;30.00;55.30
8910;DHT22;4490;49.072;8.804;2022-08-18T16:05:34;29.90;55.10
8910;DHT22;4490;49.072;8.804;2022-08-18T16:08:03;29.90;55.00
8910;DHT22;4490;49.072;8.804;2022-08-18T16:10:32;29.80;55.10
8910;DHT22;4490;49.072;8.804;2022-08-18T16:12:59;29.70;55.20
8910;DHT22;4490;49.072;8.804;2022-08-18T16:15:26;29.70;55.30
8910;DHT22;4490;49.072;8.804;2022-08-18T16:17:54;29.60;55.30
8910;DHT22;4490;49.072;8.804;2022-08-18T16:20:21;29.50;55.80
8910;DHT22;4490;49.072;8.804;2022-08-18T16:22:52;29.50;56.10
8910;DHT22;4490;49.072;8.804;2022-08-18T16:25:18;29.40;56.20
8910;DHT22;4490;49.072;8.804;2022-08-18T16:27:44;29.30;56.40
8910;DHT22;4490;49.072;8.804;2022-08-18T16:30:15;29.20;56.50
8910;DHT22;4490;49.072;8.804;2022-08-18T16:32:41;29.20;57.10
8910;DHT22;4490;49.072;8.804;2022-08-18T16:35:07;29.10;57.20
8910;DHT22;4490;49.072;8.804;2022-08-18T16:37:33;29.00;57.20
8910;DHT22;4490;49.072;8.804;2022-08-18T16:39:59;28.90;57.30
8910;DHT22;4490;49.072;8.804;2022-08-18T16:42:26;28.80;57.50
8910;DHT22;4490;49.072;8.804;2022-08-18T16:44:58;28.80;57.60
8910;DHT22;4490;49.072;8.804;2022-08-18T16:47:25;28.70;57.90
8910;DHT22;4490;49.072;8.804;2022-08-18T16:49:51;28.70;58.20
8910;DHT22;4490;49.072;8.804;2022-08-18T16:52:18;28.60;58.20
8910;DHT22;4490;49.072;8.804;2022-08-18T16:54:45;28.50;58.30
8910;DHT22;4490;49.072;8.804;2022-08-18T16:57:11;28.40;58.40
8910;DHT22;4490;49.072;8.804;2022-08-18T16:59:37;28.30;58.40
8910;DHT22;4490;49.072;8.804;2022-08-18T17:02:23;28.30;58.60
8910;DHT22;4490;49.072;8.804;2022-08-18T17:05:08;28.20;58.60
8910;DHT22;4490;49.072;8.804;2022-08-18T17:07:36;28.10;58.90
8910;DHT22;4490;49.072;8.804;2022-08-18T17:10:04;28.00;59.10
8910;DHT22;4490;49.072;8.804;2022-08-18T17:12:30;28.00;59.30
8910;DHT22;4490;49.072;8.804;2022-08-18T17:14:56;27.90;59.50
8910;DHT22;4490;49.072;8.804;2022-08-18T17:17:23;27.90;59.80
8910;DHT22;4490;49.072;8.804;2022-08-18T17:19:48;27.80;60.00
8910;DHT22;4490;49.072;8.804;2022-08-18T17:22:17;27.80;60.10
8910;DHT22;4490;49.072;8.804;2022-08-18T17:24:43;27.80;60.20
8910;DHT22;4490;49.072;8.804;2022-08-18T17:27:28;27.70;60.30
8910;DHT22;4490;49.072;8.804;2022-08-18T17:30:10;27.70;60.20
8910;DHT22;4490;49.072;8.804;2022-08-18T17:32:55;27.60;60.40
8910;DHT22;4490;49.072;8.804;2022-08-18T17:35:29;27.60;60.50
8910;DHT22;4490;49.072;8.804;2022-08-18T17:38:07;27.50;60.20
8910;DHT22;4490;49.072;8.804;2022-08-18T17:40:46;27.50;60.20
8910;DHT22;4490;49.072;8.804;2022-08-18T17:43:21;27.40;60.20
8910;DHT22;4490;49.072;8.804;2022-08-18T17:46:04;27.40;60.40
8910;DHT22;4490;49.072;8.804;2022-08-18T17:48:41;27.30;60.60
8910;DHT22;4490;49.072;8.804;2022-08-18T17:51:41;27.30;60.90
8910;DHT22;4490;49.072;8.804;2022-08-18T17:57:00;27.10;60.80
8910;DHT22;4490;49.072;8.804;2022-08-18T18:02:22;27.00;61.20
8910;DHT22;4490;49.072;8.804;2022-08-18T18:04:48;26.90;61.10
8910;DHT22;4490;49.072;8.804;2022-08-18T18:07:30;26.80;61.30
8910;DHT22;4490;49.072;8.804;2022-08-18T18:10:12;26.70;61.50
8910;DHT22;4490;49.072;8.804;2022-08-18T18:12:40;26.70;61.80
8910;DHT22;4490;49.072;8.804;2022-08-18T18:15:09;26.60;61.60
8910;DHT22;4490;49.072;8.804;2022-08-18T18:17:38;26.50;61.60
8910;DHT22;4490;49.072;8.804;2022-08-18T18:20:30;26.50;61.60
8910;DHT22;4490;49.072;8.804;2022-08-18T18:23:15;26.50;61.60
8910;DHT22;4490;49.072;8.804;2022-08-18T18:25:42;26.40;61.80
8910;DHT22;4490;49.072;8.804;2022-08-18T18:28:30;26.30;62.20
8910;DHT22;4490;49.072;8.804;2022-08-18T18:30:59;26.30;62.50
8910;DHT22;4490;49.072;8.804;2022-08-18T18:33:28;26.10;62.60
8910;DHT22;4490;49.072;8.804;2022-08-18T18:35:57;26.10;62.70
8910;DHT22;4490;49.072;8.804;2022-08-18T18:38:28;26.00;62.70
8910;DHT22;4490;49.072;8.804;2022-08-18T18:41:42;25.90;62.90
8910;DHT22;4490;49.072;8.804;2022-08-18T18:43:44;25.80;63.00
8910;DHT22;4490;49.072;8.804;2022-08-18T18:57:43;25.50;63.80
8910;DHT22;4490;49.072;8.804;2022-08-18T19:00:21;25.30;63.80
8910;DHT22;4490;49.072;8.804;2022-08-18T19:13:52;24.90;65.10
8910;DHT22;4490;49.072;8.804;2022-08-18T19:16:38;24.80;65.20
8910;DHT22;4490;49.072;8.804;2022-08-18T19:19:35;24.70;65.30
8910;DHT22;4490;49.072;8.804;2022-08-18T19:22:13;24.70;65.60
8910;DHT22;4490;49.072;8.804;2022-08-18T19:30:50;24.60;66.10
8910;DHT22;4490;49.072;8.804;2022-08-18T19:33:26;24.50;66.10